| time (UTC) | temp C | wind direction | speed KPH | gust KPH | rain 1hr cm | rain 24hr cm | rain mn cm | humidity % | barometer mb |
| 20260508122725 | 15 | 234 | 14.5 | 35.4 | 0.00 | 0.05 | 0.05 | 54 | |
| 20260508121804 | 15 | 238 | 16.1 | 30.6 | 0.00 | 0.05 | 0.05 | 58 | |
| 20260508120904 | 15 | 250 | 19.3 | 37.0 | 0.00 | 0.05 | 0.05 | 58 | |
| 20260508120025 | 15 | 246 | 19.3 | 37.0 | 0.00 | 0.05 | 0.05 | 57 | |
| 20260508115404 | 15 | 239 | 19.3 | 33.8 | 0.00 | 0.05 | 0.05 | 58 | |
| 20260508114504 | 15 | 229 | 22.5 | 38.6 | 0.00 | 0.05 | 0.05 | 58 | |
| 20260508113604 | 15 | 225 | 19.3 | 41.8 | 0.00 | 0.05 | 0.05 | 55 | |
| 20260508112704 | 15 | 226 | 19.3 | 38.6 | 0.00 | 0.05 | 0.05 | 59 | |
| 20260508111804 | 14 | 228 | 17.7 | 32.2 | 0.00 | 0.05 | 0.05 | 67 | |
| 20260508110905 | 13 | 225 | 14.5 | 27.4 | 0.00 | 0.05 | 0.05 | 66 | |
| 20260508110004 | 13 | 231 | 14.5 | 27.4 | 0.00 | 0.05 | 0.05 | 68 | |
| 20260508105404 | 13 | 230 | 16.1 | 30.6 | 0.00 | 0.05 | 0.05 | 69 | |
| 20260508104504 | 13 | 225 | 16.1 | 30.6 | 0.00 | 0.05 | 0.05 | 67 | |
| 20260508103625 | 13 | 198 | 16.1 | 32.2 | 0.00 | 0.05 | 0.05 | 70 | |
| 20260508102725 | 13 | 208 | 17.7 | 33.8 | 0.00 | 0.05 | 0.05 | 69 | |
| 20260508101804 | 13 | 208 | 16.1 | 33.8 | 0.00 | 0.05 | 0.05 | 73 | |
| 20260508100905 | 13 | 208 | 17.7 | 30.6 | 0.00 | 0.05 | 0.05 | 73 | |
| 20260508100005 | 13 | 219 | 14.5 | 30.6 | 0.00 | 0.05 | 0.05 | 73 | |
| 20260508095425 | 12 | 222 | 14.5 | 25.7 | 0.00 | 0.05 | 0.05 | 76 | |
| 20260508094503 | 12 | 225 | 14.5 | 30.6 | 0.00 | 0.05 | 0.05 | 78 | |
| 20260508093604 | 12 | 226 | 11.3 | 30.6 | 0.00 | 0.05 | 0.05 | 79 | |
| 20260508092704 | 12 | 220 | 11.3 | 22.5 | 0.00 | 0.05 | 0.05 | 82 | |
| 20260508091804 | 12 | 215 | 11.3 | 24.1 | 0.00 | 0.05 | 0.05 | 82 | |
| 20260508090904 | 12 | 214 | 9.7 | 20.9 | 0.00 | 0.05 | 0.05 | 83 | |
| 20260508090004 | 12 | 212 | 12.9 | 30.6 | 0.00 | 0.05 | 0.05 | 82 | |
| 20260508085404 | 12 | 212 | 12.9 | 30.6 | 0.00 | 0.05 | 0.05 | 81 | |
| 20260508084504 | 12 | 209 | 12.9 | 25.7 | 0.00 | 0.05 | 0.05 | 84 | |
| 20260508083604 | 12 | 202 | 11.3 | 20.9 | 0.00 | 0.05 | 0.05 | 86 | |
| 20260508082704 | 11 | 208 | 12.9 | 24.1 | 0.00 | 0.05 | 0.05 | 87 | |
| 20260508081804 | 11 | 206 | 9.7 | 20.9 | 0.00 | 0.05 | 0.05 | 88 | |
| 20260508080904 | 11 | 207 | 9.7 | 17.7 | 0.00 | 0.05 | 0.05 | 89 | |
| 20260508080005 | 11 | 201 | 8.0 | 16.1 | 0.00 | 0.05 | 0.05 | 90 | |
| 20260508075424 | 10 | 203 | 8.0 | 16.1 | 0.00 | 0.05 | 0.05 | 90 | |
| 20260508074504 | 10 | 208 | 8.0 | 16.1 | 0.00 | 0.05 | 0.05 | 91 | |
| 20260508073604 | 10 | 217 | 11.3 | 19.3 | 0.00 | 0.05 | 0.05 | 92 | |
| 20260508072704 | 10 | 222 | 8.0 | 17.7 | 0.00 | 0.05 | 0.05 | 93 | |
| 20260508071825 | 9 | 234 | 6.4 | 16.1 | 0.00 | 0.05 | 0.05 | 93 | |
| 20260508070903 | 9 | 237 | 3.2 | 11.3 | 0.00 | 0.05 | 0.05 | 94 | |
| 20260508070005 | 9 | 274 | 3.2 | 8.0 | 0.00 | 0.05 | 0.05 | 94 | |
| 20260508065404 | 9 | 262 | 3.2 | 8.0 | 0.00 | 0.05 | 0.05 | 94 | |
| 20260508064504 | 9 | 249 | 4.8 | 11.3 | 0.00 | 0.05 | 0.05 | 93 | |
| 20260508063604 | 9 | 245 | 4.8 | 11.3 | 0.00 | 0.05 | 0.05 | 93 | |
| 20260508062704 | 9 | 245 | 3.2 | 6.4 | 0.00 | 0.05 | 0.05 | 93 | |
| 20260508061804 | 9 | 247 | 4.8 | 14.5 | 0.00 | 0.05 | 0.05 | 93 | |
| 20260508060925 | 9 | 226 | 6.4 | 14.5 | 0.00 | 0.05 | 0.05 | 94 | |
| 20260508060025 | 8 | 202 | 3.2 | 9.7 | 0.00 | 0.05 | 0.05 | 95 | |
| 20260508055403 | 8 | 227 | 1.6 | 6.4 | 0.00 | 0.05 | 0.05 | 94 | |
| 20260508054503 | 8 | 246 | 0.0 | 4.8 | 0.00 | 0.05 | 0.05 | 94 | |
| 20260508053604 | 8 | 253 | 0.0 | 4.8 | 0.03 | 0.05 | 0.05 | 94 | |
| 20260508052704 | 8 | 255 | 0.0 | 4.8 | 0.03 | 0.05 | 0.05 | 94 | |
| 20260508051804 | 8 | 107 | 0.0 | 3.2 | 0.03 | 0.05 | 0.05 | 94 | |
| 20260508050903 | 8 | 70 | 0.0 | 4.8 | 0.03 | 0.05 | 0.05 | 94 | |
| 20260508050004 | 8 | 17 | 0.0 | 3.2 | 0.03 | 0.05 | 0.05 | 93 | |
| 20260508045425 | 8 | 32 | 1.6 | 4.8 | 0.03 | 0.05 | 0.05 | 93 | |
| 20260508044504 | 8 | 50 | 1.6 | 4.8 | 0.03 | 0.05 | 0.05 | 93 | |
| 20260508043604 | 8 | 34 | 0.0 | 1.6 | 0.03 | 0.05 | 0.05 | 93 | |
| 20260508042704 | 8 | 292 | 0.0 | 3.2 | 0.05 | 0.05 | 0.05 | 93 | |
| 20260508041803 | 8 | 245 | 0.0 | 4.8 | 0.05 | 0.05 | 0.05 | 93 | |
| 20260508040903 | 9 | 333 | 3.2 | 6.4 | 0.05 | 0.05 | 0.05 | 92 | |
| 20260508040004 | 9 | 327 | 1.6 | 4.8 | 0.05 | 0.05 | 0.05 | 92 | |
| 20260508035403 | 9 | 328 | 0.0 | 3.2 | 0.05 | 0.05 | 0.05 | 92 | |
| 20260508034503 | 9 | 225 | 0.0 | 6.4 | 0.05 | 0.05 | 0.05 | 92 | |
| 20260508033603 | 9 | 206 | 1.6 | 6.4 | 0.03 | 0.03 | 0.03 | 92 | |
| 20260508032704 | 9 | 186 | 3.2 | 8.0 | 0.00 | 0.00 | 0.00 | 93 | |
| 20260508031804 | 8 | 208 | 3.2 | 8.0 | 0.00 | 0.00 | 0.00 | 93 | |
| 20260508030925 | 8 | 207 | 1.6 | 6.4 | 0.00 | 0.00 | 0.00 | 93 | |
| 20260508030025 | 8 | 244 | 0.0 | 4.8 | 0.00 | 0.00 | 0.00 | 93 | |
| 20260508025404 | 8 | 316 | 0.0 | 3.2 | 0.00 | 0.00 | 0.00 | 93 | |
| 20260508024524 | 8 | 238 | 1.6 | 4.8 | 0.00 | 0.00 | 0.00 | 93 | |
| 20260508023604 | 8 | 270 | 3.2 | 6.4 | 0.00 | 0.00 | 0.00 | 92 | |
| 20260508022724 | 8 | 281 | 3.2 | 6.4 | 0.00 | 0.00 | 0.00 | 92 | |
| 20260508021803 | 8 | 267 | 3.2 | 8.0 | 0.00 | 0.00 | 0.00 | 92 | |
| 20260508020903 | 8 | 251 | 3.2 | 8.0 | 0.00 | 0.00 | 0.00 | 92 | |
| 20260508020004 | 8 | 251 | 3.2 | 8.0 | 0.00 | 0.00 | 0.00 | 92 | |
| 20260508015404 | 8 | 239 | 4.8 | 11.3 | 0.00 | 0.00 | 0.00 | 92 | |
| 20260508014504 | 8 | 247 | 3.2 | 6.4 | 0.00 | 0.00 | 0.00 | 91 | |
| 20260508013604 | 8 | 232 | 1.6 | 6.4 | 0.00 | 0.00 | 0.00 | 92 | |
| 20260508012725 | 9 | 281 | 0.0 | 4.8 | 0.00 | 0.00 | 0.00 | 91 | |
| 20260508011803 | 9 | 253 | 1.6 | 6.4 | 0.00 | 0.00 | 0.00 | 91 | |
| 20260508010904 | 9 | 267 | 3.2 | 4.8 | 0.00 | 0.00 | 0.00 | 91 | |
| 20260508010004 | 9 | 260 | 3.2 | 6.4 | 0.00 | 0.00 | 0.00 | 91 | |
| 20260508005403 | 9 | 264 | 3.2 | 6.4 | 0.00 | 0.00 | 0.00 | 90 | |
| 20260508004503 | 9 | 254 | 1.6 | 4.8 | 0.00 | 0.00 | 0.00 | 90 | |
| 20260508003603 | 10 | 299 | 0.0 | 3.2 | 0.00 | 0.00 | 0.00 | 90 | |
| 20260508002704 | 10 | 314 | 1.6 | 4.8 | 0.00 | 0.00 | 0.00 | 89 | |
| 20260508001804 | 10 | 251 | 3.2 | 8.0 | 0.00 | 0.00 | 0.00 | 89 | |
| 20260508000903 | 10 | 236 | 4.8 | 12.9 | 0.00 | 0.00 | 0.00 | 89 | |
| 20260508000017 | 10 | 245 | 4.8 | 8.0 | 0.00 | 0.00 | 0.00 | 89 | |
| 20260507235403 | 10 | 263 | 3.2 | 8.0 | 0.00 | 0.00 | 0.00 | 89 | |
| 20260507234504 | 10 | 274 | 1.6 | 4.8 | 0.00 | 0.00 | 0.00 | 89 | |
| 20260507233604 | 10 | 316 | 1.6 | 6.4 | 0.00 | 0.00 | 0.00 | 88 | |
| 20260507232703 | 10 | 280 | 3.2 | 6.4 | 0.00 | 0.00 | 0.00 | 88 | |
| 20260507231804 | 10 | 283 | 3.2 | 8.0 | 0.00 | 0.00 | 0.00 | 88 | |
| 20260507230904 | 9 | 296 | 4.8 | 8.0 | 0.00 | 0.00 | 0.00 | 88 | |
| 20260507230025 | 9 | 282 | 4.8 | 9.7 | 0.00 | 0.00 | 0.00 | 87 | |
| 20260507225404 | 9 | 266 | 4.8 | 9.7 | 0.00 | 0.00 | 0.00 | 87 | |
| 20260507224504 | 10 | 259 | 4.8 | 6.4 | 0.00 | 0.00 | 0.00 | 86 | |
| 20260507223604 | 10 | 279 | 4.8 | 8.0 | 0.00 | 0.00 | 0.00 | 86 | |
| 20260507222703 | 10 | 271 | 6.4 | 8.0 | 0.00 | 0.00 | 0.00 | 85 | |
| 20260507221803 | 10 | 256 | 3.2 | 8.0 | 0.00 | 0.00 | 0.00 | 85 | |
| 20260507220925 | 10 | 246 | 1.6 | 6.4 | 0.00 | 0.00 | 0.00 | 84 | |
| 20260507220004 | 10 | 232 | 0.0 | 3.2 | 0.00 | 0.00 | 0.00 | 83 | |
| 20260507215404 | 11 | 114 | 0.0 | 3.2 | 0.00 | 0.00 | 0.00 | 82 | |
| 20260507214504 | 11 | 122 | 1.6 | 6.4 | 0.00 | 0.00 | 0.00 | 82 | |
| 20260507213603 | 11 | 281 | 0.0 | 3.2 | 0.00 | 0.00 | 0.00 | 82 | |
| 20260507212704 | 11 | 307 | 3.2 | 9.7 | 0.00 | 0.00 | 0.00 | 81 | |
| 20260507211804 | 11 | 310 | 6.4 | 11.3 | 0.00 | 0.00 | 0.00 | 80 | |
| 20260507210924 | 11 | 279 | 4.8 | 9.7 | 0.00 | 0.00 | 0.00 | 79 | |
| 20260507210005 | 12 | 273 | 3.2 | 6.4 | 0.00 | 0.00 | 0.00 | 78 | |
| 20260507205404 | 12 | 278 | 1.6 | 6.4 | 0.00 | 0.00 | 0.00 | 78 | |
| 20260507204503 | 11 | 275 | 3.2 | 9.7 | 0.00 | 0.00 | 0.00 | 79 | |
| 20260507203604 | 11 | 267 | 4.8 | 8.0 | 0.00 | 0.00 | 0.00 | 79 | |
| 20260507202703 | 11 | 258 | 6.4 | 12.9 | 0.00 | 0.00 | 0.00 | 79 | |
| 20260507201804 | 12 | 245 | 4.8 | 11.3 | 0.00 | 0.00 | 0.00 | 79 | |
| 20260507200924 | 12 | 245 | 3.2 | 8.0 | 0.00 | 0.00 | 0.00 | 77 | |
| 20260507200004 | 12 | 296 | 1.6 | 4.8 | 0.00 | 0.00 | 0.00 | 76 | |
| 20260507195404 | 13 | 268 | 3.2 | 9.7 | 0.00 | 0.00 | 0.00 | 75 | |
| 20260507194503 | 13 | 292 | 3.2 | 8.0 | 0.00 | 0.00 | 0.00 | 74 | |
| 20260507193625 | 13 | 322 | 3.2 | 4.8 | 0.00 | 0.00 | 0.00 | 71 | |
| 20260507192724 | 13 | 335 | 4.8 | 9.7 | 0.00 | 0.00 | 0.00 | 71 | |
| 20260507191803 | 14 | 11 | 1.6 | 8.0 | 0.00 | 0.00 | 0.00 | 69 | |
| 20260507190903 | 15 | 9 | 1.6 | 4.8 | 0.00 | 0.00 | 0.00 | 69 | |
| 20260507190024 | 15 | 318 | 1.6 | 4.8 | 0.00 | 0.00 | 0.00 | 69 | |
| 20260507185404 | 15 | 345 | 1.6 | 4.8 | 0.00 | 0.00 | 0.00 | 69 | |
| 20260507184504 | 15 | 334 | 1.6 | 4.8 | 0.00 | 0.00 | 0.00 | 68 | |
| 20260507183603 | 15 | 318 | 1.6 | 4.8 | 0.00 | 0.00 | 0.00 | 66 | |
| 20260507182703 | 15 | 336 | 4.8 | 6.4 | 0.00 | 0.00 | 0.00 | 64 | |
| 20260507181804 | 16 | 327 | 3.2 | 6.4 | 0.00 | 0.00 | 0.00 | 63 | |
| 20260507180903 | 16 | 356 | 4.8 | 8.0 | 0.00 | 0.00 | 0.00 | 61 | |
| 20260507180004 | 17 | 348 | 6.4 | 14.5 | 0.00 | 0.00 | 0.00 | 57 | |
| 20260507175403 | 17 | 324 | 6.4 | 14.5 | 0.00 | 0.00 | 0.00 | 54 | |
| 20260507174504 | 18 | 313 | 4.8 | 9.7 | 0.00 | 0.00 | 0.00 | 49 | |
| 20260507173604 | 18 | 353 | 3.2 | 9.7 | 0.00 | 0.00 | 0.00 | 49 | |
| 20260507172725 | 18 | 12 | 4.8 | 11.3 | 0.00 | 0.00 | 0.00 | 50 | |
| 20260507171804 | 18 | 16 | 6.4 | 9.7 | 0.00 | 0.00 | 0.00 | 50 | |
| 20260507170904 | 18 | 4 | 6.4 | 9.7 | 0.00 | 0.00 | 0.00 | 50 | |
| 20260507170005 | 18 | 344 | 4.8 | 9.7 | 0.00 | 0.00 | 0.00 | 52 | |
| 20260507165405 | 17 | 338 | 3.2 | 6.4 | 0.00 | 0.00 | 0.00 | 49 | |
| 20260507164504 | 17 | 326 | 4.8 | 8.0 | 0.00 | 0.00 | 0.00 | 57 | |
| 20260507163604 | 17 | 318 | 6.4 | 11.3 | 0.00 | 0.00 | 0.00 | 51 | |
| 20260507162704 | 18 | 300 | 6.4 | 12.9 | 0.00 | 0.00 | 0.00 | 50 | |
| 20260507161804 | 18 | 313 | 4.8 | 12.9 | 0.00 | 0.00 | 0.00 | 47 | |
| 20260507160925 | 18 | 360 | 1.6 | 6.4 | 0.00 | 0.00 | 0.00 | 49 | |
| 20260507160025 | 17 | 53 | 1.6 | 6.4 | 0.00 | 0.00 | 0.00 | 51 | |
| 20260507155404 | 17 | 28 | 0.0 | 4.8 | 0.00 | 0.00 | 0.00 | 53 | |
| 20260507154525 | 16 | 346 | 1.6 | 4.8 | 0.00 | 0.00 | 0.00 | 55 | |
| 20260507153604 | 16 | 341 | 4.8 | 8.0 | 0.00 | 0.00 | 0.00 | 56 | |
| 20260507152704 | 16 | 307 | 8.0 | 11.3 | 0.00 | 0.00 | 0.00 | 56 | |
| 20260507151804 | 16 | 249 | 8.0 | 17.7 | 0.00 | 0.00 | 0.00 | 56 | |
| 20260507150904 | 17 | 234 | 8.0 | 17.7 | 0.00 | 0.00 | 0.00 | 55 | |
| 20260507150005 | 17 | 212 | 8.0 | 19.3 | 0.00 | 0.00 | 0.00 | 52 | |
| 20260507145404 | 16 | 204 | 9.7 | 19.3 | 0.00 | 0.00 | 0.00 | 52 | |
| 20260507144505 | 16 | 210 | 12.9 | 22.5 | 0.00 | 0.00 | 0.00 | 56 | |
| 20260507143605 | 17 | 222 | 14.5 | 30.6 | 0.00 | 0.00 | 0.00 | 51 | |
| 20260507142704 | 17 | 249 | 9.7 | 24.1 | 0.00 | 0.00 | 0.00 | 53 | |
| 20260507141804 | 17 | 265 | 11.3 | 22.5 | 0.00 | 0.00 | 0.00 | 51 | |
| 20260507140925 | 17 | 273 | 11.3 | 24.1 | 0.00 | 0.00 | 0.00 | 51 | |
| 20260507140005 | 17 | 271 | 16.1 | 30.6 | 0.00 | 0.00 | 0.00 | 53 | |
| 20260507135404 | 17 | 273 | 17.7 | 32.2 | 0.00 | 0.00 | 0.00 | 51 | |
| 20260507134505 | 17 | 297 | 12.9 | 27.4 | 0.00 | 0.00 | 0.00 | 53 | |
| 20260507133604 | 16 | 293 | 12.9 | 29.0 | 0.00 | 0.00 | 0.00 | 54 | |
| 20260507132704 | 16 | 304 | 16.1 | 29.0 | 0.00 | 0.00 | 0.00 | 50 | |
| 20260507131804 | 16 | 305 | 19.3 | 35.4 | 0.00 | 0.00 | 0.00 | 54 | |
| 20260507130904 | 16 | 310 | 20.9 | 35.4 | 0.00 | 0.00 | 0.00 | 54 | |
| 20260507130004 | 16 | 306 | 16.1 | 29.0 | 0.00 | 0.00 | 0.00 | 55 | |
| 20260507125404 | 16 | 302 | 16.1 | 29.0 | 0.00 | 0.00 | 0.00 | 54 | |
| 20260507124504 | 17 | 235 | 11.3 | 30.6 | 0.00 | 0.00 | 0.00 | 51 | |
| 20260507123604 | 17 | 222 | 12.9 | 24.1 | 0.00 | 0.00 | 0.00 | 51 |